Little River Academy, Texas
Current Conditions -  °F | °C
As of 6:15 PM on Wednesday 22 Oct 2014 (Local Time) from KTPL Reporting Station
Clear Clear  
Wind Chill: 75°   Ceiling: Unl
Heat Index: 75°   Visibility: 10mi
Dew Point: 55°   Wind: 5mph
Humidity: 50%   Direction: 70°ENE
Pressure: 30.06"   Gusts: NA
Location:  30.9809°N, 97.3415°W
Report Text: KTPL 222315Z AUTO 07004KT 10SM CLR 24/13 A3006 RMK AO1
Loading
Personal Weather Stations






























Interactive Weather Map
Tropical Storm Tracking
New forecast layout! Learn more

10-Day Weather Forecast

Advertisements
Track Severe Weather on mobile